Time;durP1;ratioP1;P1;durP2;ratioP2;P2;SDS_P1;SDS_P2;PMS_P1;PMS_P2;Temp;Humidity;BMP_temperature;BMP_pressure;BME280_temperature;BME280_humidity;BME280_pressure;Samples;Min_cycle;Max_cycle;Signal;HPM_P1;HPM_P2
2021/11/01 00:03:48;;;;;;;60.08;20.73;;;;;;;;;;8138026;28;20333;-69
2021/11/01 00:07:54;;;;;;;36.38;15.75;;;;;;;;;;8161987;28;20470;-69
2021/11/01 00:11:59;;;;;;;29.63;15.00;;;;;;;;;;8162373;28;20042;-69
2021/11/01 00:16:05;;;;;;;26.45;13.48;;;;;;;;;;8160483;28;20406;-69
2021/11/01 00:20:11;;;;;;;25.38;13.20;;;;;;;;;;8162814;28;20394;-69
2021/11/01 00:24:16;;;;;;;29.92;12.48;;;;;;;;;;8161892;28;20327;-69
2021/11/01 00:28:21;;;;;;;28.55;12.35;;;;;;;;;;8161398;28;20478;-69
2021/11/01 00:32:26;;;;;;;33.60;12.40;;;;;;;;;;8161183;28;20069;-69
2021/11/01 00:36:31;;;;;;;26.90;12.57;;;;;;;;;;8161332;28;20374;-69
2021/11/01 00:40:38;;;;;;;30.13;11.57;;;;;;;;;;8159959;28;20362;-70
2021/11/01 00:44:43;;;;;;;20.00;10.15;;;;;;;;;;8161107;28;20447;-69
2021/11/01 00:48:49;;;;;;;25.63;10.82;;;;;;;;;;8143501;28;20402;-71
2021/11/01 00:52:55;;;;;;;32.80;11.60;;;;;;;;;;8158744;28;20367;-69
2021/11/01 00:57:00;;;;;;;23.05;11.13;;;;;;;;;;8160832;28;20478;-69
2021/11/01 01:01:04;;;;;;;25.70;10.57;;;;;;;;;;8160293;28;20402;-69
2021/11/01 01:05:10;;;;;;;32.47;12.70;;;;;;;;;;8167042;28;20366;-70
2021/11/01 01:09:15;;;;;;;19.50;9.88;;;;;;;;;;8167477;28;20421;-69
2021/11/01 01:13:23;;;;;;;27.55;11.55;;;;;;;;;;8167550;28;20068;-70
2021/11/01 01:17:28;;;;;;;72.93;21.27;;;;;;;;;;8167340;28;20050;-69
2021/11/01 01:25:57;;;;;;;21.27;9.75;;;;;;;;;;8166901;28;20482;-69
2021/11/01 01:30:05;;;;;;;21.20;10.55;;;;;;;;;;8167027;28;20378;-69
2021/11/01 01:34:11;;;;;;;41.00;14.85;;;;;;;;;;8162701;28;20486;-69
2021/11/01 01:38:17;;;;;;;39.53;13.68;;;;;;;;;;8167306;28;20346;-69
2021/11/01 01:42:22;;;;;;;26.17;11.68;;;;;;;;;;8166602;28;20458;-69
2021/11/01 01:46:29;;;;;;;19.50;9.60;;;;;;;;;;8165142;28;20463;-69
2021/11/01 01:50:35;;;;;;;22.80;9.07;;;;;;;;;;8166090;28;20366;-70
2021/11/01 01:54:40;;;;;;;18.27;9.48;;;;;;;;;;8166947;28;20349;-69
2021/11/01 01:58:54;;;;;;;16.77;8.40;;;;;;;;;;8166077;28;20320;-70
2021/11/01 02:03:02;;;;;;;18.73;9.25;;;;;;;;;;8148273;28;20393;-70
2021/11/01 02:07:25;;;;;;;23.55;10.18;;;;;;;;;;8165546;28;20473;-69
2021/11/01 02:11:45;;;;;;;25.83;9.85;;;;;;;;;;8164977;28;20468;-69
2021/11/01 02:15:55;;;;;;;24.98;9.80;;;;;;;;;;8168600;28;20042;-70
2021/11/01 02:20:09;;;;;;;24.23;11.25;;;;;;;;;;8149269;28;20378;-69
2021/11/01 02:24:43;;;;;;;19.42;8.93;;;;;;;;;;8164521;28;20077;-70
2021/11/01 02:28:48;;;;;;;19.92;9.57;;;;;;;;;;8164900;28;20477;-69
2021/11/01 02:32:54;;;;;;;24.25;10.18;;;;;;;;;;8163632;28;20366;-71
2021/11/01 02:37:00;;;;;;;19.45;8.70;;;;;;;;;;8163468;28;20477;-69
2021/11/01 02:41:23;;;;;;;19.42;9.30;;;;;;;;;;8163058;28;20054;-69
2021/11/01 02:45:29;;;;;;;25.73;10.07;;;;;;;;;;8165249;28;20331;-69
2021/11/01 02:49:34;;;;;;;21.77;9.20;;;;;;;;;;8162345;28;20046;-69
2021/11/01 02:53:37;;;;;;;31.30;13.55;;;;;;;;;;8165008;28;20046;-69
2021/11/01 02:57:43;;;;;;;26.65;9.85;;;;;;;;;;8163443;28;20380;-69
2021/11/01 03:01:50;;;;;;;18.45;8.93;;;;;;;;;;8164778;28;20463;-69
2021/11/01 03:05:57;;;;;;;18.65;8.75;;;;;;;;;;8165404;28;20362;-70
2021/11/01 03:10:06;;;;;;;20.10;8.50;;;;;;;;;;8162841;28;20090;-69
2021/11/01 03:14:17;;;;;;;20.27;8.50;;;;;;;;;;8162800;28;20438;-69
2021/11/01 03:18:33;;;;;;;18.88;7.90;;;;;;;;;;8148921;28;20047;-69
2021/11/01 03:23:18;;;;;;;21.92;8.57;;;;;;;;;;8162722;28;20401;-69
2021/11/01 03:27:24;;;;;;;14.32;7.65;;;;;;;;;;8141058;28;20371;-69
2021/11/01 03:31:32;;;;;;;20.25;10.55;;;;;;;;;;8161716;28;20366;-69
2021/11/01 03:35:39;;;;;;;16.70;7.87;;;;;;;;;;8163201;28;20378;-71
2021/11/01 03:39:46;;;;;;;18.25;8.45;;;;;;;;;;8160987;28;20775;-69
2021/11/01 03:43:59;;;;;;;12.98;7.18;;;;;;;;;;8161555;28;20050;-69
2021/11/01 03:48:08;;;;;;;23.48;8.52;;;;;;;;;;8161304;28;20043;-69
2021/11/01 03:52:16;;;;;;;18.05;8.30;;;;;;;;;;8162012;28;20362;-69
2021/11/01 03:56:22;;;;;;;20.13;8.65;;;;;;;;;;8162018;28;20450;-69
2021/11/01 04:00:31;;;;;;;16.20;7.10;;;;;;;;;;8162044;28;20446;-70
2021/11/01 04:04:36;;;;;;;14.73;7.55;;;;;;;;;;8161901;28;20367;-69
2021/11/01 04:08:42;;;;;;;14.75;6.45;;;;;;;;;;8161160;28;20373;-70
2021/11/01 04:12:47;;;;;;;17.95;7.00;;;;;;;;;;8161706;28;20359;-69
2021/11/01 04:16:59;;;;;;;13.82;6.82;;;;;;;;;;8160494;28;20512;-69
2021/11/01 04:21:08;;;;;;;28.60;11.60;;;;;;;;;;8160372;28;20414;-69
2021/11/01 04:25:14;;;;;;;18.20;8.60;;;;;;;;;;8160961;28;20344;-69
2021/11/01 04:29:19;;;;;;;16.05;8.25;;;;;;;;;;8161722;28;20386;-69
2021/11/01 04:33:26;;;;;;;13.98;6.90;;;;;;;;;;8160932;28;20370;-69
2021/11/01 04:37:32;;;;;;;11.80;6.65;;;;;;;;;;8162643;28;20489;-69
2021/11/01 04:41:41;;;;;;;9.68;5.63;;;;;;;;;;8161159;28;20455;-69
2021/11/01 04:54:33;;;;;;;11.48;5.45;;;;;;;;;;8160804;28;20381;-70
2021/11/01 04:58:42;;;;;;;19.35;6.40;;;;;;;;;;8159176;28;20487;-69
2021/11/01 05:02:54;;;;;;;11.82;5.97;;;;;;;;;;8159581;28;20386;-69
2021/11/01 05:07:02;;;;;;;12.55;6.57;;;;;;;;;;8158797;28;20454;-69
2021/11/01 05:11:15;;;;;;;13.02;6.65;;;;;;;;;;8160909;28;20390;-69
2021/11/01 05:15:28;;;;;;;16.05;6.75;;;;;;;;;;8158953;28;20386;-69
2021/11/01 05:19:37;;;;;;;15.48;6.40;;;;;;;;;;8162573;28;20480;-69
2021/11/01 05:23:49;;;;;;;11.13;6.07;;;;;;;;;;8161189;28;20042;-70
2021/11/01 05:28:03;;;;;;;10.90;5.93;;;;;;;;;;8158920;28;20046;-69
2021/11/01 05:32:12;;;;;;;11.80;5.90;;;;;;;;;;8160238;28;20072;-69
2021/11/01 05:36:17;;;;;;;9.90;5.85;;;;;;;;;;8161998;28;20496;-69
2021/11/01 05:40:23;;;;;;;15.88;6.20;;;;;;;;;;8160802;28;20354;-69
2021/11/01 05:44:28;;;;;;;10.48;5.85;;;;;;;;;;8160143;28;20496;-69
2021/11/01 05:48:33;;;;;;;12.32;5.90;;;;;;;;;;8163160;28;20363;-69
2021/11/01 05:52:40;;;;;;;79.65;39.63;;;;;;;;;;8164545;28;20050;-69
2021/11/01 05:56:50;;;;;;;16.25;9.45;;;;;;;;;;8165900;28;20061;-69
2021/11/01 06:05:27;;;;;;;17.88;6.60;;;;;;;;;;8164958;28;20112;-69
2021/11/01 06:09:47;;;;;;;10.30;6.18;;;;;;;;;;8165039;28;20450;-70
2021/11/01 06:13:55;;;;;;;13.73;5.35;;;;;;;;;;8165358;28;20370;-69
2021/11/01 06:18:00;;;;;;;9.90;5.03;;;;;;;;;;8165104;28;20359;-69
2021/11/01 06:22:06;;;;;;;10.18;5.38;;;;;;;;;;8167834;28;20351;-69
2021/11/01 06:26:11;;;;;;;9.38;5.18;;;;;;;;;;8164598;28;20050;-69
2021/11/01 06:30:24;;;;;;;12.38;6.05;;;;;;;;;;8166430;28;20039;-70
2021/11/01 06:38:59;;;;;;;12.90;5.78;;;;;;;;;;8163671;28;20397;-69
2021/11/01 06:39:24;;;;;;;11.77;5.95;;;;;;;;;;8165788;28;20434;-70
2021/11/01 06:43:31;;;;;;;9.75;4.70;;;;;;;;;;8162671;28;20435;-69
2021/11/01 06:52:44;;;;;;;10.35;5.18;;;;;;;;;;8163938;28;20331;-70
2021/11/01 06:57:16;;;;;;;10.15;4.95;;;;;;;;;;8163831;28;20418;-69
2021/11/01 07:17:25;;;;;;;74.97;21.63;;;;;;;;;;8162493;28;20055;-69
2021/11/01 07:30:44;;;;;;;16.33;7.00;;;;;;;;;;8130196;28;20046;-70
2021/11/01 08:23:07;;;;;;;77.22;31.92;;;;;;;;;;8111413;28;20420;-71
2021/11/01 08:27:46;;;;;;;95.10;38.03;;;;;;;;;;8123905;28;20076;-72
2021/11/01 09:08:00;;;;;;;10.13;4.95;;;;;;;;;;8129192;28;20323;-69
2021/11/01 09:21:13;;;;;;;6.18;3.88;;;;;;;;;;8139718;28;20047;-70
2021/11/01 09:25:27;;;;;;;5.97;3.45;;;;;;;;;;8138536;28;20484;-70
2021/11/01 09:29:45;;;;;;;4.90;2.65;;;;;;;;;;8166058;28;20358;-69
2021/11/01 09:38:28;;;;;;;3.92;2.60;;;;;;;;;;8163620;28;20340;-69
2021/11/01 09:42:36;;;;;;;4.95;2.38;;;;;;;;;;8139782;28;20378;-67
2021/11/01 09:46:41;;;;;;;3.22;1.85;;;;;;;;;;8140246;28;20101;-68
2021/11/01 09:50:45;;;;;;;3.83;2.30;;;;;;;;;;8161955;28;20390;-72
2021/11/01 09:54:53;;;;;;;2.65;1.90;;;;;;;;;;8164776;28;20042;-72
2021/11/01 09:59:12;;;;;;;4.78;1.73;;;;;;;;;;8152899;28;20069;-71
2021/11/01 10:03:17;;;;;;;5.28;2.40;;;;;;;;;;8129744;28;20463;-71
2021/11/01 10:07:27;;;;;;;3.80;2.17;;;;;;;;;;8135492;28;20394;-71
2021/11/01 10:11:38;;;;;;;4.07;2.63;;;;;;;;;;8131530;28;20378;-68
2021/11/01 10:20:20;;;;;;;3.15;1.90;;;;;;;;;;8158159;28;20046;-71
2021/11/01 10:24:38;;;;;;;5.15;2.53;;;;;;;;;;8160271;28;20047;-69
2021/11/01 10:28:46;;;;;;;5.40;2.80;;;;;;;;;;8161353;28;20058;-71
2021/11/01 10:32:54;;;;;;;4.82;2.80;;;;;;;;;;8158137;28;20434;-72
2021/11/01 10:36:59;;;;;;;3.10;2.17;;;;;;;;;;8151118;28;20363;-72
2021/11/01 10:41:11;;;;;;;5.45;2.78;;;;;;;;;;8144765;28;20039;-69
2021/11/01 10:45:28;;;;;;;3.97;2.50;;;;;;;;;;8146630;28;20407;-72
2021/11/01 11:11:34;;;;;;;5.88;3.25;;;;;;;;;;8143289;28;20343;-70
2021/11/01 11:15:42;;;;;;;5.75;3.05;;;;;;;;;;8156010;28;20054;-70
2021/11/01 11:29:16;;;;;;;7.93;3.45;;;;;;;;;;8135623;28;20366;-71
2021/11/01 11:47:11;;;;;;;4.93;2.83;;;;;;;;;;8155117;28;22143;-71
2021/11/01 11:51:15;;;;;;;5.55;2.97;;;;;;;;;;8143862;28;20376;-72
2021/11/01 11:55:29;;;;;;;5.63;2.78;;;;;;;;;;8135569;28;20072;-70
2021/11/01 11:59:39;;;;;;;4.55;2.60;;;;;;;;;;8143490;28;20365;-69
2021/11/01 12:03:44;;;;;;;5.68;2.72;;;;;;;;;;8132323;28;20104;-71
2021/11/01 12:08:06;;;;;;;4.55;2.80;;;;;;;;;;8133983;28;20051;-70
2021/11/01 12:12:28;;;;;;;3.67;2.40;;;;;;;;;;8142606;28;20498;-71
2021/11/01 12:21:00;;;;;;;23.95;10.68;;;;;;;;;;8133335;28;20340;-71
2021/11/01 12:25:09;;;;;;;30.58;21.05;;;;;;;;;;8145257;28;20065;-70
2021/11/01 12:29:17;;;;;;;5.65;3.30;;;;;;;;;;8146155;28;20469;-70
2021/11/01 12:33:22;;;;;;;4.00;2.83;;;;;;;;;;8144140;28;20343;-72
2021/11/01 12:37:29;;;;;;;6.80;3.63;;;;;;;;;;8144325;28;20451;-71
2021/11/01 12:41:42;;;;;;;5.70;3.00;;;;;;;;;;8142366;28;20354;-71
2021/11/01 12:59:15;;;;;;;5.35;3.17;;;;;;;;;;8147503;28;20347;-70
2021/11/01 13:03:23;;;;;;;22.17;10.73;;;;;;;;;;8138562;28;20358;-71
2021/11/01 13:07:48;;;;;;;7.50;4.28;;;;;;;;;;8150152;28;20050;-71
2021/11/01 13:12:08;;;;;;;5.60;3.58;;;;;;;;;;8149193;28;20395;-70
2021/11/01 13:20:47;;;;;;;4.33;2.67;;;;;;;;;;8147477;28;20401;-71
2021/11/01 13:24:57;;;;;;;5.60;3.33;;;;;;;;;;8149466;28;20051;-71
2021/11/01 13:29:22;;;;;;;5.97;2.80;;;;;;;;;;8142184;28;20415;-71
2021/11/01 13:38:03;;;;;;;11.10;4.15;;;;;;;;;;8147964;28;20470;-70
2021/11/01 13:42:16;;;;;;;5.57;3.05;;;;;;;;;;8145747;28;20383;-71
2021/11/01 13:46:27;;;;;;;5.53;3.10;;;;;;;;;;8151747;28;20374;-70
2021/11/01 13:50:39;;;;;;;6.13;2.97;;;;;;;;;;8150783;28;20073;-70
2021/11/01 13:55:01;;;;;;;5.13;3.08;;;;;;;;;;8151189;28;20362;-71
2021/11/01 13:59:43;;;;;;;16.10;3.10;;;;;;;;;;8145565;28;20497;-70
2021/11/01 14:12:42;;;;;;;4.43;3.03;;;;;;;;;;8129938;28;20501;-70
2021/11/01 14:16:55;;;;;;;6.32;3.20;;;;;;;;;;8144190;28;20339;-71
2021/11/01 15:15:30;;;;;;;9.15;5.38;;;;;;;;;;8276599;28;20402;-72
2021/11/01 15:24:18;;;;;;;13.15;6.20;;;;;;;;;;8226062;28;20472;-71
2021/11/01 16:20:52;;;;;;;153.13;61.30;;;;;;;;;;8251247;28;20498;-71
2021/11/01 16:24:59;;;;;;;221.25;54.38;;;;;;;;;;8252142;28;20055;-71
2021/11/01 16:29:07;;;;;;;362.15;114.68;;;;;;;;;;8235371;28;20067;-69
2021/11/01 16:33:12;;;;;;;233.68;76.95;;;;;;;;;;8234290;28;20380;-69
2021/11/01 16:37:26;;;;;;;297.67;96.97;;;;;;;;;;8252561;28;20629;-70
2021/11/01 16:41:31;;;;;;;340.48;108.65;;;;;;;;;;8251699;28;20386;-68
2021/11/01 16:45:37;;;;;;;155.88;53.90;;;;;;;;;;8233507;28;20357;-68
2021/11/01 16:49:43;;;;;;;98.60;39.17;;;;;;;;;;8232943;28;20037;-70
2021/11/01 16:53:50;;;;;;;89.63;38.78;;;;;;;;;;8251608;28;20486;-70
2021/11/01 16:57:57;;;;;;;83.65;34.13;;;;;;;;;;8249618;28;20368;-70
2021/11/01 17:02:17;;;;;;;90.05;33.42;;;;;;;;;;8252336;28;20374;-73
2021/11/01 17:06:32;;;;;;;78.22;33.35;;;;;;;;;;8237382;28;20391;-72
2021/11/01 17:24:06;;;;;;;99.18;40.65;;;;;;;;;;8251901;28;20480;-70
2021/11/01 17:28:37;;;;;;;106.72;38.75;;;;;;;;;;8250546;28;20492;-70
2021/11/01 17:37:18;;;;;;;179.02;55.78;;;;;;;;;;8236227;28;20479;-70
2021/11/01 18:50:57;;;;;;;47.35;19.88;;;;;;;;;;12142002;19;20355;-70
2021/11/01 18:55:08;;;;;;;52.60;18.80;;;;;;;;;;12144005;19;20347;-70
2021/11/01 18:59:15;;;;;;;71.22;26.35;;;;;;;;;;12144437;19;20442;-69
2021/11/01 19:03:25;;;;;;;59.22;24.15;;;;;;;;;;12121854;19;20018;-69
2021/11/01 19:07:38;;;;;;;56.50;22.63;;;;;;;;;;12095837;19;20363;-69
2021/11/01 20:04:25;;;;;;;111.95;41.45;;;;;;;;;;12095639;19;20363;-70
2021/11/01 21:26:52;;;;;;;51.65;21.13;;;;;;;;;;12088282;19;20014;-68
2021/11/01 21:30:59;;;;;;;129.55;43.08;;;;;;;;;;12092832;19;20318;-68
2021/11/01 21:35:09;;;;;;;67.63;27.33;;;;;;;;;;12089085;19;20592;-69
2021/11/01 21:39:15;;;;;;;;;;;;;;;;;;12090537;19;20449;-68
2021/11/01 21:43:23;;;;;;;70.70;24.92;;;;;;;;;;12091162;19;20292;-68
2021/11/01 21:47:30;;;;;;;45.43;19.17;;;;;;;;;;12089846;19;20347;-68
2021/11/01 21:51:41;;;;;;;48.55;19.58;;;;;;;;;;12087606;19;20355;-69
2021/11/01 21:55:48;;;;;;;46.28;19.70;;;;;;;;;;12088381;19;20342;-69
2021/11/01 22:21:43;;;;;;;48.33;20.45;;;;;;;;;;12089424;19;20323;-69
2021/11/01 22:25:55;;;;;;;51.55;21.58;;;;;;;;;;12088466;19;20376;-70
2021/11/01 22:34:23;;;;;;;42.05;19.48;;;;;;;;;;12083310;19;20048;-69
2021/11/01 22:38:46;;;;;;;40.72;18.75;;;;;;;;;;12090501;19;20371;-69
2021/11/01 22:42:58;;;;;;;38.17;19.63;;;;;;;;;;12099117;19;20014;-70
2021/11/01 22:47:23;;;;;;;42.05;19.05;;;;;;;;;;12098667;19;20318;-69
2021/11/01 22:55:55;;;;;;;38.08;16.42;;;;;;;;;;12098229;19;20011;-69
2021/11/01 23:00:15;;;;;;;41.00;17.70;;;;;;;;;;12098154;19;20369;-69
2021/11/01 23:04:34;;;;;;;48.30;19.53;;;;;;;;;;12099157;19;20026;-69
2021/11/01 23:34:36;;;;;;;39.22;18.13;;;;;;;;;;12094245;19;20307;-69
2021/11/01 23:38:43;;;;;;;63.00;27.27;;;;;;;;;;12095939;19;20011;-69
2021/11/01 23:42:50;;;;;;;39.00;17.90;;;;;;;;;;12096637;19;20301;-69
2021/11/01 23:46:56;;;;;;;44.90;18.70;;;;;;;;;;12095603;19;20311;-69
2021/11/01 23:51:04;;;;;;;40.47;16.85;;;;;;;;;;12093852;19;20295;-69
2021/11/01 23:55:14;;;;;;;37.53;15.35;;;;;;;;;;12094549;19;20469;-69
2021/11/01 23:59:21;;;;;;;35.38;14.63;;;;;;;;;;12095063;19;20318;-69
